createdAt,value
2023-07-12T00:01:19.780Z,99895.03
2023-07-12T00:03:47.105Z,99900.25
2023-07-12T00:06:17.657Z,99902.00
2023-07-12T00:08:44.946Z,99897.78
2023-07-12T00:11:20.565Z,99896.91
2023-07-12T00:13:48.525Z,99894.28
2023-07-12T00:16:22.747Z,99888.28
2023-07-12T00:18:50.319Z,99889.09
2023-07-12T00:21:26.578Z,99884.81
2023-07-12T00:23:55.185Z,99884.81
2023-07-12T00:26:26.215Z,99879.56
2023-07-12T00:28:54.065Z,99887.44
2023-07-12T00:31:21.889Z,99891.13
2023-07-12T00:33:48.992Z,99899.88
2023-07-12T00:36:24.619Z,99905.94
2023-07-12T00:38:52.193Z,99913.78
2023-07-12T00:41:50.810Z,99905.19
2023-07-12T00:44:23.172Z,99885.13
2023-07-12T00:46:53.503Z,99881.78
2023-07-12T00:49:20.784Z,99863.50
2023-07-12T00:52:13.336Z,99852.97
2023-07-12T00:55:02.720Z,99847.81
2023-07-12T00:57:31.751Z,99839.09
2023-07-12T01:00:12.558Z,99837.38
2023-07-12T01:02:41.565Z,99817.31
2023-07-12T01:05:09.892Z,99802.63
2023-07-12T01:07:37.132Z,99797.50
2023-07-12T01:10:04.494Z,99789.81
2023-07-12T01:12:32.134Z,99787.56
2023-07-12T01:14:59.099Z,99788.00
2023-07-12T01:17:27.514Z,99792.72
2023-07-12T01:19:54.465Z,99779.94
2023-07-12T01:22:21.516Z,99776.66
2023-07-12T01:24:48.607Z,99771.56
2023-07-12T01:27:19.289Z,99768.16
2023-07-12T01:29:47.643Z,99771.00
2023-07-12T01:32:15.038Z,99777.94
2023-07-12T01:34:46.234Z,99773.66
2023-07-12T01:37:14.360Z,99776.25
2023-07-12T01:39:41.672Z,99780.50
2023-07-12T01:42:10.784Z,99768.22
2023-07-12T01:44:37.917Z,99772.59
2023-07-12T01:47:04.963Z,99772.66
2023-07-12T01:49:33.833Z,99781.31
2023-07-12T01:52:00.759Z,99780.22
2023-07-12T01:54:27.683Z,99765.19
2023-07-12T01:56:54.584Z,99761.66
2023-07-12T01:59:21.579Z,99772.16
2023-07-12T02:01:48.793Z,99778.34
2023-07-12T02:04:15.724Z,99792.22
2023-07-12T02:06:43.203Z,99796.44
2023-07-12T02:09:10.167Z,99797.22
2023-07-12T02:11:37.087Z,99798.78
2023-07-12T02:14:04.468Z,99803.84
2023-07-12T02:16:31.577Z,99795.91
2023-07-12T02:18:58.456Z,99801.78
2023-07-12T02:21:25.477Z,99793.91
2023-07-12T02:23:54.223Z,99803.47
2023-07-12T02:26:21.227Z,99811.25
2023-07-12T02:28:48.272Z,99791.94
2023-07-12T02:31:19.596Z,99779.88
2023-07-12T02:33:47.806Z,99772.47
2023-07-12T02:36:14.890Z,99766.63
2023-07-12T02:38:41.895Z,99758.97
2023-07-12T02:41:09.559Z,99747.94
2023-07-12T02:43:36.810Z,99739.25
2023-07-12T02:46:04.470Z,99736.53
2023-07-12T02:48:31.545Z,99731.91
2023-07-12T02:50:58.744Z,99739.44
2023-07-12T02:53:25.668Z,99736.56
2023-07-12T02:55:52.810Z,99720.69
2023-07-12T02:58:19.900Z,99714.63
2023-07-12T03:00:47.790Z,99712.72
2023-07-12T03:03:15.321Z,99712.91
2023-07-12T03:05:42.513Z,99697.78
2023-07-12T03:08:09.571Z,99702.34
2023-07-12T03:10:38.691Z,99698.28
2023-07-12T03:13:05.909Z,99692.22
2023-07-12T03:15:35.318Z,99689.84
2023-07-12T03:18:02.572Z,99689.84
2023-07-12T03:20:29.472Z,99699.16
2023-07-12T03:22:56.431Z,99699.72
2023-07-12T03:25:23.579Z,99693.25
2023-07-12T03:27:51.952Z,99681.69
2023-07-12T03:30:19.127Z,99683.63
2023-07-12T03:32:46.174Z,99673.72
2023-07-12T03:35:13.587Z,99674.50
2023-07-12T03:37:40.573Z,99670.00
2023-07-12T03:40:09.002Z,99664.50
2023-07-12T03:42:35.981Z,99654.91
2023-07-12T03:45:03.505Z,99646.22
2023-07-12T03:47:30.769Z,99650.13
2023-07-12T03:49:57.890Z,99662.00
2023-07-12T03:52:24.801Z,99664.13
2023-07-12T03:54:51.833Z,99679.44
2023-07-12T03:57:18.714Z,99696.72
2023-07-12T03:59:45.811Z,99688.47
2023-07-12T04:02:12.916Z,99676.97
2023-07-12T04:04:39.813Z,99672.13
2023-07-12T04:07:07.105Z,99664.56
2023-07-12T04:09:34.111Z,99653.00
2023-07-12T04:12:01.051Z,99659.69
2023-07-12T04:14:27.961Z,99656.78
2023-07-12T04:16:55.160Z,99655.16
2023-07-12T04:19:22.508Z,99656.22
2023-07-12T04:21:52.735Z,99656.06
2023-07-12T04:24:19.757Z,99661.13
2023-07-12T04:26:49.907Z,99672.38
2023-07-12T04:29:17.105Z,99664.16
2023-07-12T04:31:44.064Z,99657.13
2023-07-12T04:34:12.701Z,99662.13
2023-07-12T04:36:41.203Z,99649.13
2023-07-12T04:39:09.321Z,99642.56
2023-07-12T04:41:36.331Z,99630.13
2023-07-12T04:44:04.062Z,99616.66
2023-07-12T04:46:31.735Z,99606.91
2023-07-12T04:48:58.694Z,99601.09
2023-07-12T04:51:25.676Z,99607.88
2023-07-12T04:53:52.558Z,99609.28
2023-07-12T04:56:19.653Z,99603.69
2023-07-12T04:58:46.505Z,99597.94
2023-07-12T05:01:14.657Z,99611.28
2023-07-12T05:03:41.688Z,99616.25
2023-07-12T05:06:21.750Z,99616.84
2023-07-12T05:08:50.223Z,99609.88
2023-07-12T05:11:17.194Z,99603.22
2023-07-12T05:13:44.693Z,99600.53
2023-07-12T05:16:15.075Z,99592.38
2023-07-12T05:18:42.112Z,99594.25
2023-07-12T05:21:10.297Z,99593.69
2023-07-12T05:23:38.302Z,99589.44
2023-07-12T05:26:05.343Z,99592.63
2023-07-12T05:28:32.236Z,99596.63
2023-07-12T05:30:59.299Z,99605.31
2023-07-12T05:33:26.351Z,99601.09
2023-07-12T05:35:53.295Z,99582.47
2023-07-12T05:38:20.353Z,99577.66
2023-07-12T05:40:47.320Z,99547.84
2023-07-12T05:43:15.085Z,99555.22
2023-07-12T05:45:43.796Z,99551.69
2023-07-12T05:48:10.770Z,99542.56
2023-07-12T05:50:37.986Z,99536.88
2023-07-12T05:53:04.988Z,99534.72
2023-07-12T05:55:32.696Z,99528.56
2023-07-12T05:58:01.696Z,99536.31
2023-07-12T06:00:29.977Z,99526.53
2023-07-12T06:02:57.392Z,99526.28
2023-07-12T06:05:24.562Z,99520.16
2023-07-12T06:07:52.213Z,99524.00
2023-07-12T06:10:19.528Z,99521.66
2023-07-12T06:12:46.744Z,99520.75
2023-07-12T06:15:13.798Z,99524.38
2023-07-12T06:17:40.855Z,99526.38
2023-07-12T06:20:09.203Z,99518.56
2023-07-12T06:22:36.181Z,99519.94
2023-07-12T06:25:03.215Z,99518.63
2023-07-12T06:27:30.291Z,99523.22
2023-07-12T06:29:57.292Z,99522.41
2023-07-12T06:32:24.331Z,99518.78
2023-07-12T06:34:51.197Z,99514.41
2023-07-12T06:37:18.307Z,99507.03
2023-07-12T06:39:45.179Z,99510.06
2023-07-12T06:42:12.137Z,99504.00
2023-07-12T06:44:39.824Z,99503.28
2023-07-12T06:47:07.019Z,99504.00
2023-07-12T06:49:34.022Z,99511.03
2023-07-12T06:52:01.114Z,99507.63
2023-07-12T06:54:28.078Z,99507.88
2023-07-12T06:56:55.118Z,99495.88
2023-07-12T06:59:22.939Z,99493.81
2023-07-12T07:01:49.874Z,99488.50
2023-07-12T07:04:17.216Z,99484.00
2023-07-12T07:06:44.267Z,99495.75
2023-07-12T07:09:11.743Z,99494.19
2023-07-12T07:11:38.957Z,99489.34
2023-07-12T07:14:06.000Z,99487.78
2023-07-12T07:16:33.366Z,99477.09
2023-07-12T07:19:00.588Z,99473.09
2023-07-12T07:21:27.856Z,99462.75
2023-07-12T07:23:54.903Z,99462.75
2023-07-12T07:26:21.864Z,99454.38
2023-07-12T07:28:49.000Z,99452.38
2023-07-12T07:31:15.959Z,99445.44
2023-07-12T07:33:43.180Z,99430.84
2023-07-12T07:36:12.941Z,99432.34
2023-07-12T07:38:40.026Z,99423.75
2023-07-12T07:41:10.601Z,99417.41
2023-07-12T07:43:38.251Z,99410.13
2023-07-12T07:46:05.519Z,99402.59
2023-07-12T07:48:32.537Z,99399.78
2023-07-12T07:50:59.629Z,99409.81
2023-07-12T07:53:26.485Z,99417.31
2023-07-12T07:55:53.905Z,99418.84
2023-07-12T07:58:22.082Z,99412.81
2023-07-12T08:00:49.617Z,99421.28
2023-07-12T08:03:16.739Z,99423.72
2023-07-12T08:05:44.034Z,99416.38
2023-07-12T08:08:10.970Z,99417.69
2023-07-12T08:10:38.224Z,99401.53
2023-07-12T08:13:05.562Z,99413.34
2023-07-12T08:15:32.821Z,99400.44
2023-07-12T08:17:59.865Z,99400.91
2023-07-12T08:20:27.080Z,99401.72
2023-07-12T08:22:54.169Z,99411.75
2023-07-12T08:25:21.150Z,99425.72
2023-07-12T08:27:48.137Z,99421.47
2023-07-12T08:30:15.377Z,99415.25
2023-07-12T08:32:42.414Z,99402.00
2023-07-12T08:35:11.555Z,99387.75
2023-07-12T08:37:39.120Z,99389.78
2023-07-12T08:40:07.105Z,99385.72
2023-07-12T08:42:40.636Z,99400.38
2023-07-12T08:45:30.481Z,99404.47
2023-07-12T08:48:01.758Z,99389.63
2023-07-12T08:50:40.397Z,99371.63
2023-07-12T08:53:12.361Z,99369.81
2023-07-12T08:55:39.493Z,99367.50
2023-07-12T08:58:34.382Z,99372.00
2023-07-12T09:01:10.652Z,99367.38
2023-07-12T09:03:37.833Z,99375.53
2023-07-12T09:06:11.872Z,99373.53
2023-07-12T09:08:41.132Z,99360.31
2023-07-12T09:11:16.853Z,99354.69
2023-07-12T09:13:47.411Z,99348.06
2023-07-12T09:16:33.494Z,99339.88
2023-07-12T09:19:12.670Z,99336.09
2023-07-12T09:21:40.233Z,99329.06
2023-07-12T09:24:15.438Z,99327.63
2023-07-12T09:26:43.307Z,99320.38
2023-07-12T09:29:29.645Z,99324.13
2023-07-12T09:32:01.464Z,99306.50
2023-07-12T09:34:36.984Z,99297.78
2023-07-12T09:37:04.305Z,99283.81
2023-07-12T09:39:31.304Z,99272.72
2023-07-12T09:42:01.115Z,99274.81
2023-07-12T09:44:28.833Z,99272.50
2023-07-12T09:47:26.479Z,99267.22
2023-07-12T09:50:01.617Z,99269.19
2023-07-12T09:52:35.467Z,99257.13
2023-07-12T09:55:13.164Z,99257.97
2023-07-12T09:58:19.987Z,99249.81
2023-07-12T10:01:04.523Z,99239.41
2023-07-12T10:03:52.382Z,99246.69
2023-07-12T10:06:34.102Z,99243.22
2023-07-12T10:09:11.813Z,99247.22
2023-07-12T10:12:07.382Z,99241.75
2023-07-12T10:14:37.168Z,99237.00
2023-07-12T10:17:04.617Z,99253.22
2023-07-12T10:19:34.751Z,99260.31
2023-07-12T10:22:04.437Z,99253.56
2023-07-12T10:24:43.745Z,99255.69
2023-07-12T10:27:33.000Z,99258.88
2023-07-12T10:30:05.601Z,99257.75
2023-07-12T10:32:38.029Z,99267.94
2023-07-12T10:35:44.965Z,99269.78
2023-07-12T10:38:19.840Z,99266.25
2023-07-12T10:41:08.692Z,99256.94
2023-07-12T10:43:46.079Z,99258.16
2023-07-12T10:46:31.857Z,99252.41
2023-07-12T10:48:59.342Z,99257.25
2023-07-12T10:51:36.593Z,99255.59
2023-07-12T10:54:05.059Z,99257.16
2023-07-12T10:56:38.803Z,99262.22
2023-07-12T10:59:39.922Z,99270.69
2023-07-12T11:02:33.316Z,99273.09
2023-07-12T11:05:00.633Z,99263.81
2023-07-12T11:07:30.731Z,99260.22
2023-07-12T11:10:16.936Z,99264.81
2023-07-12T11:12:51.034Z,99260.22
2023-07-12T11:15:24.266Z,99269.75
2023-07-12T11:18:26.889Z,99270.88
2023-07-12T11:21:01.129Z,99270.97
2023-07-12T11:23:50.281Z,99268.31
2023-07-12T11:26:28.164Z,99266.72
2023-07-12T11:29:29.224Z,99265.41
2023-07-12T11:32:22.269Z,99264.56
2023-07-12T11:34:49.783Z,99254.03
2023-07-12T11:37:22.918Z,99258.63
2023-07-12T11:39:49.959Z,99250.63
2023-07-12T11:42:28.881Z,99257.28
2023-07-12T11:45:06.735Z,99253.63
2023-07-12T11:47:34.537Z,99249.53
2023-07-12T11:50:02.128Z,99237.09
2023-07-12T11:52:29.544Z,99239.81
2023-07-12T11:54:56.534Z,99236.59
2023-07-12T11:57:23.580Z,99216.75
2023-07-12T11:59:53.585Z,99207.34
2023-07-12T12:02:22.650Z,99194.66
2023-07-12T12:04:57.758Z,99181.50
2023-07-12T12:07:37.870Z,99163.94
2023-07-12T12:10:06.937Z,99179.16
2023-07-12T12:12:34.785Z,99190.53
2023-07-12T12:15:02.460Z,99201.81
2023-07-12T12:17:37.267Z,99191.78
2023-07-12T12:20:15.468Z,99188.00
2023-07-12T12:22:46.075Z,99179.03
2023-07-12T12:25:21.736Z,99170.69
2023-07-12T12:27:50.110Z,99163.44
2023-07-12T12:30:27.897Z,99162.44
2023-07-12T12:33:06.684Z,99153.63
2023-07-12T12:35:47.551Z,99148.53
2023-07-12T12:38:24.499Z,99142.25
2023-07-12T12:40:57.618Z,99147.09
2023-07-12T12:43:25.822Z,99145.41
2023-07-12T12:46:06.466Z,99159.72
2023-07-12T12:53:48.367Z,99173.41
2023-07-12T13:01:16.229Z,99178.19
2023-07-12T13:06:38.460Z,99234.63
2023-07-12T13:12:52.978Z,99298.16
2023-07-12T13:17:53.406Z,99254.63
2023-07-12T13:19:53.153Z,99218.84
2023-07-12T13:22:24.031Z,99221.91
2023-07-12T13:24:55.945Z,99214.91
2023-07-12T13:27:38.443Z,99214.97
2023-07-12T13:30:12.453Z,99213.97
2023-07-12T13:32:40.127Z,99199.47
2023-07-12T13:37:43.062Z,99188.91
2023-07-12T13:40:20.383Z,99193.06
2023-07-12T13:42:57.727Z,99196.84
2023-07-12T13:45:26.045Z,99205.75
2023-07-12T13:47:54.143Z,99209.25
2023-07-12T13:50:22.237Z,99212.56
2023-07-12T13:52:49.235Z,99213.88
2023-07-12T13:55:19.193Z,99217.00
2023-07-12T13:57:47.870Z,99220.78
2023-07-12T14:00:23.602Z,99209.84
2023-07-12T14:03:05.783Z,99215.03
2023-07-12T14:10:34.603Z,99226.06
2023-07-12T14:13:01.520Z,99233.78
2023-07-12T14:15:28.662Z,99239.97
2023-07-12T14:17:56.725Z,99246.94
2023-07-12T14:20:25.044Z,99246.97
2023-07-12T14:22:52.052Z,99240.63
2023-07-12T14:25:21.125Z,99246.31
2023-07-12T14:27:50.031Z,99250.81
2023-07-12T14:32:49.758Z,99258.69
2023-07-12T14:35:20.322Z,99254.56
2023-07-12T14:37:47.513Z,99257.81
2023-07-12T14:40:16.633Z,99256.25
2023-07-12T14:42:43.966Z,99273.25
2023-07-12T14:45:16.217Z,99275.06
2023-07-12T14:47:43.586Z,99277.09
2023-07-12T14:50:13.662Z,99273.22
2023-07-12T14:52:41.105Z,99276.22
2023-07-12T14:55:13.910Z,99288.91
2023-07-12T14:58:08.546Z,99281.25
2023-07-12T15:00:28.702Z,99284.13
2023-07-12T15:02:58.651Z,99286.91
2023-07-12T15:05:28.119Z,99286.56
2023-07-12T15:07:55.211Z,99284.44
2023-07-12T15:10:22.295Z,99282.78
2023-07-12T15:13:00.140Z,99287.00
2023-07-12T15:15:30.111Z,99286.31
2023-07-12T15:18:20.857Z,99289.88
2023-07-12T15:20:51.184Z,99280.81
2023-07-12T15:23:21.018Z,99263.63
2023-07-12T15:25:48.682Z,99263.50
2023-07-12T15:28:16.975Z,99271.34
2023-07-12T15:30:48.246Z,99262.66
2023-07-12T15:33:21.746Z,99268.94
2023-07-12T15:35:50.708Z,99260.59
2023-07-12T15:38:18.079Z,99264.47
2023-07-12T15:40:57.302Z,99262.41
2023-07-12T15:43:36.056Z,99276.81
2023-07-12T15:46:04.728Z,99269.16
2023-07-12T15:48:34.242Z,99268.47
2023-07-12T15:51:20.136Z,99272.44
2023-07-12T15:53:50.962Z,99264.94
2023-07-12T15:56:20.635Z,99261.81
2023-07-12T15:58:48.215Z,99261.09
2023-07-12T16:01:22.904Z,99265.09
2023-07-12T16:03:50.640Z,99268.22
2023-07-12T16:06:18.059Z,99267.84
2023-07-12T16:08:45.039Z,99274.66
2023-07-12T16:11:37.228Z,99274.38
2023-07-12T16:14:19.581Z,99281.16
2023-07-12T16:16:46.789Z,99269.66
2023-07-12T16:19:16.020Z,99287.38
2023-07-12T16:21:43.115Z,99292.22
2023-07-12T16:24:11.954Z,99282.97
2023-07-12T16:26:40.039Z,99290.97
2023-07-12T16:29:10.605Z,99294.63
2023-07-12T16:31:47.019Z,99291.38
2023-07-12T16:34:19.788Z,99296.63
2023-07-12T16:36:48.868Z,99298.91
2023-07-12T16:39:16.591Z,99304.97
2023-07-12T16:41:44.370Z,99312.72
2023-07-12T16:44:17.728Z,99299.78
2023-07-12T16:46:45.941Z,99318.56
2023-07-12T16:49:13.818Z,99320.28
2023-07-12T16:52:01.514Z,99317.13
2023-07-12T16:54:29.840Z,99304.59
2023-07-12T16:56:57.003Z,99322.66
2023-07-12T16:59:25.495Z,99315.81
2023-07-12T17:01:53.778Z,99321.22
2023-07-12T17:04:21.817Z,99322.03
2023-07-12T17:06:48.755Z,99322.69
2023-07-12T17:09:21.392Z,99326.34
2023-07-12T17:11:49.059Z,99325.44
2023-07-12T17:14:16.730Z,99326.94
2023-07-12T17:16:44.390Z,99331.84
2023-07-12T17:19:12.220Z,99322.97
2023-07-12T17:21:39.317Z,99343.88
2023-07-12T17:24:14.050Z,99344.44
2023-07-12T17:26:41.948Z,99347.72
2023-07-12T17:29:10.019Z,99358.13
2023-07-12T17:31:39.694Z,99367.56
2023-07-12T17:34:22.767Z,99370.19
2023-07-12T17:36:50.354Z,99360.84
2023-07-12T17:39:17.987Z,99361.28
2023-07-12T17:41:45.676Z,99365.41
2023-07-12T17:44:20.895Z,99374.72
2023-07-12T17:46:50.370Z,99370.56
2023-07-12T17:49:17.309Z,99367.47
2023-07-12T17:51:44.503Z,99370.84
2023-07-12T17:54:12.710Z,99366.91
2023-07-12T17:56:39.916Z,99370.06
2023-07-12T17:59:06.897Z,99366.84
2023-07-12T18:01:34.180Z,99370.75
2023-07-12T18:04:01.838Z,99361.47
2023-07-12T18:06:30.584Z,99372.38
2023-07-12T18:08:57.665Z,99370.22
2023-07-12T18:11:31.355Z,99376.09
2023-07-12T18:14:01.100Z,99372.06
2023-07-12T18:16:30.118Z,99374.16
2023-07-12T18:18:57.439Z,99377.19
2023-07-12T18:21:34.263Z,99378.63
2023-07-12T18:24:03.291Z,99378.16
2023-07-12T18:26:30.793Z,99377.59
2023-07-12T18:28:58.282Z,99377.94
2023-07-12T18:31:34.771Z,99388.34
2023-07-12T18:34:03.313Z,99382.47
2023-07-12T18:36:34.276Z,99381.06
2023-07-12T18:39:06.333Z,99383.34
2023-07-12T18:41:33.591Z,99389.75
2023-07-12T18:44:00.773Z,99390.13
2023-07-12T18:46:27.866Z,99390.50
2023-07-12T18:48:55.078Z,99392.84
2023-07-12T18:51:28.413Z,99392.53
2023-07-12T18:53:55.550Z,99399.72
2023-07-12T18:56:26.382Z,99396.59
2023-07-12T18:58:54.523Z,99400.59
2023-07-12T19:01:27.099Z,99393.09
2023-07-12T19:03:54.193Z,99402.25
2023-07-12T19:06:24.831Z,99408.03
2023-07-12T19:08:52.043Z,99402.53
2023-07-12T19:11:30.665Z,99409.09
2023-07-12T19:13:57.697Z,99400.66
2023-07-12T19:16:25.079Z,99405.44
2023-07-12T19:18:52.394Z,99403.97
2023-07-12T19:21:25.428Z,99407.13
2023-07-12T19:23:53.607Z,99414.72
2023-07-12T19:26:21.924Z,99417.88
2023-07-12T19:28:49.107Z,99430.66
2023-07-12T19:31:39.221Z,99445.28
2023-07-12T19:34:11.906Z,99455.41
2023-07-12T19:36:41.991Z,99452.25
2023-07-12T19:39:11.148Z,99453.41
2023-07-12T19:41:38.472Z,99464.34
2023-07-12T19:44:08.652Z,99470.78
2023-07-12T19:46:36.639Z,99476.38
2023-07-12T19:49:07.915Z,99477.66
2023-07-12T19:51:38.970Z,99470.72
2023-07-12T19:54:15.756Z,99471.75
2023-07-12T19:56:44.360Z,99472.75
2023-07-12T19:59:11.642Z,99479.97
2023-07-12T20:01:39.588Z,99481.03
2023-07-12T20:04:09.654Z,99473.44
2023-07-12T20:06:36.729Z,99480.72
2023-07-12T20:09:04.443Z,99483.59
2023-07-12T20:11:31.468Z,99480.28
2023-07-12T20:13:58.669Z,99487.34
2023-07-12T20:16:28.517Z,99486.84
2023-07-12T20:18:56.287Z,99494.22
2023-07-12T20:21:23.970Z,99486.47
2023-07-12T20:23:52.700Z,99491.03
2023-07-12T20:26:22.811Z,99494.69
2023-07-12T20:28:51.041Z,99483.63
2023-07-12T20:31:19.500Z,99486.41
2023-07-12T20:33:47.155Z,99492.13
2023-07-12T20:36:15.485Z,99483.72
2023-07-12T20:38:42.775Z,99484.81
2023-07-12T20:41:10.259Z,99480.66
2023-07-12T20:43:39.487Z,99481.09
2023-07-12T20:46:08.230Z,99484.06
2023-07-12T20:48:37.090Z,99486.00
2023-07-12T20:51:11.365Z,99488.84
2023-07-12T20:53:39.400Z,99492.63
2023-07-12T20:56:06.312Z,99491.13
2023-07-12T20:58:33.534Z,99493.06
2023-07-12T21:01:12.477Z,99497.66
2023-07-12T21:03:39.717Z,99494.31
2023-07-12T21:06:06.945Z,99504.06
2023-07-12T21:08:35.207Z,99497.09
2023-07-12T21:11:03.508Z,99494.38
2023-07-12T21:13:31.182Z,99497.94
2023-07-12T21:16:02.097Z,99505.97
2023-07-12T21:18:29.404Z,99508.88
2023-07-12T21:20:56.834Z,99503.78
2023-07-12T21:23:25.921Z,99511.94
2023-07-12T21:25:53.151Z,99507.09
2023-07-12T21:28:20.188Z,99509.19
2023-07-12T21:30:49.803Z,99507.69
2023-07-12T21:33:17.590Z,99513.97
2023-07-12T21:35:53.612Z,99512.47
2023-07-12T21:38:21.675Z,99509.16
2023-07-12T21:40:49.041Z,99518.91
2023-07-12T21:43:17.309Z,99522.66
2023-07-12T21:45:44.441Z,99519.19
2023-07-12T21:48:11.888Z,99515.13
2023-07-12T21:50:41.253Z,99512.66
2023-07-12T21:53:08.549Z,99512.81
2023-07-12T21:55:35.558Z,99508.69
2023-07-12T21:58:02.665Z,99510.63
2023-07-12T22:00:29.855Z,99510.72
2023-07-12T22:02:57.341Z,99509.25
2023-07-12T22:05:24.839Z,99503.41
2023-07-12T22:07:55.312Z,99506.25
2023-07-12T22:10:27.013Z,99514.34
2023-07-12T22:12:54.500Z,99509.34
2023-07-12T22:15:22.298Z,99519.13
2023-07-12T22:17:49.571Z,99521.94
2023-07-12T22:20:19.481Z,99528.97
2023-07-12T22:22:47.858Z,99531.81
2023-07-12T22:25:18.363Z,99537.25
2023-07-12T22:27:46.359Z,99544.28
2023-07-12T22:30:32.531Z,99546.13
2023-07-12T22:33:00.081Z,99546.91
2023-07-12T22:35:28.187Z,99546.13
2023-07-12T22:37:56.306Z,99545.28
2023-07-12T22:40:24.035Z,99557.47
2023-07-12T22:42:51.630Z,99554.84
2023-07-12T22:45:19.192Z,99548.75
2023-07-12T22:47:46.207Z,99546.19
2023-07-12T22:50:14.131Z,99548.00
2023-07-12T22:52:42.272Z,99547.09
2023-07-12T22:55:10.359Z,99549.72
2023-07-12T22:57:37.483Z,99547.13
2023-07-12T23:00:05.668Z,99552.53
2023-07-12T23:02:33.087Z,99556.91
2023-07-12T23:05:00.131Z,99554.31
2023-07-12T23:07:27.530Z,99551.66
2023-07-12T23:09:55.015Z,99553.53
2023-07-12T23:12:22.292Z,99561.50
2023-07-12T23:14:49.524Z,99555.41
2023-07-12T23:17:16.613Z,99557.16
2023-07-12T23:19:43.766Z,99552.06
2023-07-12T23:22:18.991Z,99552.06
2023-07-12T23:24:47.587Z,99550.31
2023-07-12T23:27:14.551Z,99553.69
2023-07-12T23:29:44.335Z,99559.69
2023-07-12T23:32:13.367Z,99554.44
2023-07-12T23:34:40.505Z,99558.84
2023-07-12T23:37:12.406Z,99564.94
2023-07-12T23:39:40.384Z,99567.56
2023-07-12T23:42:08.805Z,99555.41
2023-07-12T23:44:35.979Z,99549.47
2023-07-12T23:47:06.503Z,99550.03
2023-07-12T23:49:34.100Z,99554.00
2023-07-12T23:52:01.720Z,99556.00
2023-07-12T23:54:30.076Z,99564.94
2023-07-12T23:56:59.228Z,99563.25
2023-07-12T23:59:27.286Z,99556.53
